Главная страница
METAR-TAF:

METAR-TAF

Аэропорты :

Хитроу

Лондон-Хитроу, Англия

широта: 51-29N, долгота: 000-27W, высота над уровнем моря: 24 м

Текущие метеонаблюдения

Эта сводка был подготовлена 29 минут назад, в 11:20 UTC
Ветер 9 Узел от северный, изменяющийся между северо-западный и северо-северо-восточный
Температура 18°C
Влажность 37%
Давление 1026 hPa
Видимость 10 км и более

METAR: EGLL 211120Z AUTO 35009KT 310V020 9999 NCD 18/03 Q1026 NOSIG

Время: 12:49 (11:49 UTC)

Прогноз

Эта сводка был подготовлена 50 минут назад, в 10:59 UTC
Прогноз действительный с 21-го 12 UTC до 22-го 18 UTC
Ветер 12 Узел от северно-северо-западный
Видимость 10 км и более
небольшая облачность на высоте 4500 фута

TAF: EGLL 211059Z 2112/2218 33012KT 9999 FEW045

Метеонаблюдения и прогнозы для более 4000 аэропортов (сводки METAR и TAF).

Имеющиеся станции представлены на карте желтыми и красными точками.

Чтобы увидеть название станции, наведите на нее мышь.

Затем щелкните, чтобы увидеть метеонаблюдения и метеопрогнозы.

Управление картой: чтобы увеличить масштаб, щелкните зеленые кнопки с черным крестиком; чтобы уменьшить масштаб, щелкните зеленую кнопку с тире; для просмотра соседних карт щелкайте зеленые стрелки.


METAR-TAF: